sensor_id;sensor_type;location;lat;lon;timestamp;pressure;altitude;pressure_sealevel;temperature;humidity
31011;BME280;26395;53.412;19.598;2023-12-20T00:12:59;99370.48;;;9.43;100.00
31011;BME280;26395;53.412;19.598;2023-12-20T00:28:37;99362.49;;;9.59;100.00
31011;BME280;26395;53.412;19.598;2023-12-20T00:44:14;99372.59;;;9.45;100.00
31011;BME280;26395;53.412;19.598;2023-12-20T00:59:51;99370.10;;;9.35;100.00
31011;BME280;26395;53.412;19.598;2023-12-20T01:15:28;99350.58;;;9.72;100.00
31011;BME280;26395;53.412;19.598;2023-12-20T01:31:07;99340.73;;;9.76;100.00
31011;BME280;26395;53.412;19.598;2023-12-20T01:46:45;99319.58;;;9.71;100.00
31011;BME280;26395;53.412;19.598;2023-12-20T02:02:22;99313.45;;;9.75;100.00
31011;BME280;26395;53.412;19.598;2023-12-20T02:17:59;99289.44;;;9.79;100.00
31011;BME280;26395;53.412;19.598;2023-12-20T02:33:36;99283.67;;;9.83;100.00
31011;BME280;26395;53.412;19.598;2023-12-20T02:49:13;99270.91;;;9.91;100.00
31011;BME280;26395;53.412;19.598;2023-12-20T03:04:50;99257.11;;;9.90;100.00
31011;BME280;26395;53.412;19.598;2023-12-20T03:20:30;99250.70;;;9.91;100.00
31011;BME280;26395;53.412;19.598;2023-12-20T03:36:07;99247.54;;;10.02;100.00
31011;BME280;26395;53.412;19.598;2023-12-20T03:51:44;99243.05;;;9.91;100.00
31011;BME280;26395;53.412;19.598;2023-12-20T04:07:21;99254.48;;;9.93;100.00
31011;BME280;26395;53.412;19.598;2023-12-20T04:22:59;99244.34;;;9.92;100.00
31011;BME280;26395;53.412;19.598;2023-12-20T04:38:37;99244.69;;;9.38;100.00
31011;BME280;26395;53.412;19.598;2023-12-20T04:54:14;99238.27;;;8.71;100.00
31011;BME280;26395;53.412;19.598;2023-12-20T05:09:51;99239.32;;;8.64;100.00
31011;BME280;26395;53.412;19.598;2023-12-20T05:25:28;99244.88;;;8.60;100.00
31011;BME280;26395;53.412;19.598;2023-12-20T05:41:05;99246.02;;;8.58;100.00
31011;BME280;26395;53.412;19.598;2023-12-20T05:56:42;99252.41;;;8.47;100.00
31011;BME280;26395;53.412;19.598;2023-12-20T06:12:19;99243.84;;;8.47;100.00
31011;BME280;26395;53.412;19.598;2023-12-20T06:27:59;99247.64;;;8.40;100.00
31011;BME280;26395;53.412;19.598;2023-12-20T06:43:36;99254.70;;;8.13;100.00
31011;BME280;26395;53.412;19.598;2023-12-20T06:59:13;99265.29;;;8.00;100.00
31011;BME280;26395;53.412;19.598;2023-12-20T07:14:50;99270.05;;;7.79;100.00
31011;BME280;26395;53.412;19.598;2023-12-20T07:30:27;99268.64;;;8.00;100.00
31011;BME280;26395;53.412;19.598;2023-12-20T07:46:08;99260.82;;;8.16;100.00
31011;BME280;26395;53.412;19.598;2023-12-20T08:01:45;99260.24;;;8.19;100.00
31011;BME280;26395;53.412;19.598;2023-12-20T08:17:23;99264.52;;;8.05;99.89
31011;BME280;26395;53.412;19.598;2023-12-20T08:33:00;99253.09;;;8.10;100.00
31011;BME280;26395;53.412;19.598;2023-12-20T08:48:43;99246.14;;;8.17;100.00
31011;BME280;26395;53.412;19.598;2023-12-20T09:04:21;99251.45;;;8.35;99.48
31011;BME280;26395;53.412;19.598;2023-12-20T09:19:57;99255.58;;;8.33;99.57
31011;BME280;26395;53.412;19.598;2023-12-20T09:35:37;99243.64;;;8.33;100.00
31011;BME280;26395;53.412;19.598;2023-12-20T09:51:15;99214.48;;;9.09;98.53
31011;BME280;26395;53.412;19.598;2023-12-20T10:06:55;99196.08;;;10.88;96.01
31011;BME280;26395;53.412;19.598;2023-12-20T10:22:32;99178.85;;;10.13;89.00
31011;BME280;26395;53.412;19.598;2023-12-20T10:38:10;99173.88;;;8.84;91.26
31011;BME280;26395;53.412;19.598;2023-12-20T10:53:48;99180.07;;;8.60;92.14
31011;BME280;26395;53.412;19.598;2023-12-20T11:09:36;99153.18;;;8.51;92.00
31011;BME280;26395;53.412;19.598;2023-12-20T11:25:17;99131.30;;;8.45;90.33
31011;BME280;26395;53.412;19.598;2023-12-20T11:40:54;99100.45;;;8.79;88.09
31011;BME280;26395;53.412;19.598;2023-12-20T11:56:33;99064.55;;;8.09;90.28
31011;BME280;26395;53.412;19.598;2023-12-20T12:12:14;99034.86;;;8.71;85.95
31011;BME280;26395;53.412;19.598;2023-12-20T12:27:51;99003.36;;;8.74;85.86
31011;BME280;26395;53.412;19.598;2023-12-20T12:43:28;98979.96;;;7.31;92.52
31011;BME280;26395;53.412;19.598;2023-12-20T12:59:06;98954.63;;;7.25;95.56
31011;BME280;26395;53.412;19.598;2023-12-20T13:14:43;98932.09;;;7.58;96.42
31011;BME280;26395;53.412;19.598;2023-12-20T13:30:20;98922.70;;;8.67;90.63
31011;BME280;26395;53.412;19.598;2023-12-20T13:45:58;98907.48;;;8.57;91.32
31011;BME280;26395;53.412;19.598;2023-12-20T14:01:35;98895.20;;;8.58;92.47
31011;BME280;26395;53.412;19.598;2023-12-20T14:17:12;98891.23;;;8.66;92.20
31011;BME280;26395;53.412;19.598;2023-12-20T14:32:49;98882.61;;;8.42;93.74
31011;BME280;26395;53.412;19.598;2023-12-20T14:48:26;98875.86;;;7.68;99.35
31011;BME280;26395;53.412;19.598;2023-12-20T15:04:04;98863.43;;;7.67;99.97
31011;BME280;26395;53.412;19.598;2023-12-20T15:19:45;98848.06;;;7.74;99.93
31011;BME280;26395;53.412;19.598;2023-12-20T15:35:24;98837.70;;;7.65;99.43
31011;BME280;26395;53.412;19.598;2023-12-20T15:51:05;98816.92;;;7.74;98.90
31011;BME280;26395;53.412;19.598;2023-12-20T16:06:42;98795.36;;;7.81;97.92
31011;BME280;26395;53.412;19.598;2023-12-20T16:22:26;98767.80;;;7.82;98.03
31011;BME280;26395;53.412;19.598;2023-12-20T16:38:03;98735.23;;;7.89;96.60
31011;BME280;26395;53.412;19.598;2023-12-20T16:53:41;98719.67;;;7.93;96.48
31011;BME280;26395;53.412;19.598;2023-12-20T17:09:40;98700.30;;;7.68;98.11
31011;BME280;26395;53.412;19.598;2023-12-20T17:25:18;98697.66;;;7.56;98.49
31011;BME280;26395;53.412;19.598;2023-12-20T17:40:55;98692.56;;;7.49;99.46
31011;BME280;26395;53.412;19.598;2023-12-20T17:56:32;98694.40;;;7.62;99.30
31011;BME280;26395;53.412;19.598;2023-12-20T18:12:10;98708.83;;;7.82;97.84
31011;BME280;26395;53.412;19.598;2023-12-20T18:27:51;98728.05;;;7.89;96.44
31011;BME280;26395;53.412;19.598;2023-12-20T18:43:28;98724.81;;;7.68;94.45
31011;BME280;26395;53.412;19.598;2023-12-20T18:59:05;98733.11;;;7.60;92.73
31011;BME280;26395;53.412;19.598;2023-12-20T19:14:42;98752.13;;;6.69;95.24
31011;BME280;26395;53.412;19.598;2023-12-20T19:30:19;98757.59;;;7.05;91.55
31011;BME280;26395;53.412;19.598;2023-12-20T19:45:58;98774.58;;;6.84;90.41
31011;BME280;26395;53.412;19.598;2023-12-20T20:01:37;98781.73;;;6.17;93.34
31011;BME280;26395;53.412;19.598;2023-12-20T20:17:16;98785.06;;;5.71;97.65
31011;BME280;26395;53.412;19.598;2023-12-20T20:32:53;98793.77;;;5.52;98.84
31011;BME280;26395;53.412;19.598;2023-12-20T20:48:33;98794.00;;;5.37;99.10
31011;BME280;26395;53.412;19.598;2023-12-20T21:04:15;98795.09;;;5.43;99.02
31011;BME280;26395;53.412;19.598;2023-12-20T21:19:53;98789.39;;;5.40;98.18
31011;BME280;26395;53.412;19.598;2023-12-20T21:35:30;98792.23;;;5.47;96.69
31011;BME280;26395;53.412;19.598;2023-12-20T21:51:07;98802.61;;;5.46;94.64
31011;BME280;26395;53.412;19.598;2023-12-20T22:06:45;98823.52;;;5.31;96.97
31011;BME280;26395;53.412;19.598;2023-12-20T22:22:22;98827.36;;;4.95;98.41
31011;BME280;26395;53.412;19.598;2023-12-20T22:37:59;98816.89;;;4.88;99.75
31011;BME280;26395;53.412;19.598;2023-12-20T22:53:36;98821.48;;;4.93;99.93
31011;BME280;26395;53.412;19.598;2023-12-20T23:09:13;98806.65;;;4.83;99.66
31011;BME280;26395;53.412;19.598;2023-12-20T23:24:50;98797.69;;;5.62;94.64
31011;BME280;26395;53.412;19.598;2023-12-20T23:40:27;98785.41;;;5.88;90.06
31011;BME280;26395;53.412;19.598;2023-12-20T23:56:04;98780.80;;;5.82;89.62
